createdAt,value
2022-10-23T00:01:39.060Z,6.72
2022-10-23T00:04:12.951Z,5.60
2022-10-23T00:06:40.849Z,11.43
2022-10-23T00:09:11.004Z,12.02
2022-10-23T00:11:41.511Z,11.63
2022-10-23T00:14:09.912Z,14.45
2022-10-23T00:16:38.087Z,15.50
2022-10-23T00:19:05.996Z,11.18
2022-10-23T00:21:33.773Z,9.95
2022-10-23T00:24:01.538Z,7.95
2022-10-23T00:26:29.316Z,9.65
2022-10-23T00:28:58.418Z,10.25
2022-10-23T00:31:26.483Z,10.50
2022-10-23T00:33:54.463Z,8.95
2022-10-23T00:36:22.802Z,7.95
2022-10-23T00:38:51.135Z,5.38
2022-10-23T00:41:21.703Z,10.93
2022-10-23T00:44:01.832Z,6.82
2022-10-23T00:46:30.005Z,10.77
2022-10-23T00:48:58.293Z,8.63
2022-10-23T00:51:28.172Z,7.47
2022-10-23T00:54:12.668Z,7.90
2022-10-23T00:56:47.353Z,6.40
2022-10-23T00:59:16.894Z,8.20
2022-10-23T01:01:45.252Z,10.32
2022-10-23T01:04:13.033Z,14.80
2022-10-23T01:06:46.293Z,12.35
2022-10-23T01:09:19.795Z,7.97
2022-10-23T01:11:53.679Z,9.40
2022-10-23T01:14:32.079Z,8.27
2022-10-23T01:17:07.052Z,10.05
2022-10-23T01:19:48.912Z,13.32
2022-10-23T01:22:33.788Z,14.68
2022-10-23T01:25:03.648Z,11.55
2022-10-23T01:27:35.748Z,6.68
2022-10-23T01:30:06.985Z,10.45
2022-10-23T01:32:40.788Z,10.20
2022-10-23T01:35:15.565Z,8.38
2022-10-23T01:37:46.141Z,8.77
2022-10-23T01:40:25.244Z,8.57
2022-10-23T01:42:57.436Z,10.15
2022-10-23T01:45:29.197Z,11.65
2022-10-23T01:47:57.984Z,9.40
2022-10-23T01:50:27.736Z,6.93
2022-10-23T01:52:55.505Z,7.10
2022-10-23T01:55:24.895Z,3.53
2022-10-23T01:57:53.735Z,3.70
2022-10-23T02:00:23.230Z,4.40
2022-10-23T02:02:52.680Z,7.35
2022-10-23T02:05:23.439Z,3.97
2022-10-23T02:07:52.434Z,4.53
2022-10-23T02:10:20.956Z,3.78
2022-10-23T02:12:55.803Z,7.60
2022-10-23T02:15:30.286Z,3.15
2022-10-23T02:18:07.381Z,5.72
2022-10-23T02:20:40.599Z,6.70
2022-10-23T02:23:16.552Z,6.93
2022-10-23T02:25:50.199Z,4.47
2022-10-23T02:28:23.544Z,11.95
2022-10-23T02:30:53.021Z,3.95
2022-10-23T02:33:21.026Z,7.88
2022-10-23T02:35:49.673Z,9.75
2022-10-23T02:38:37.219Z,11.75
2022-10-23T02:41:19.023Z,3.50
2022-10-23T02:43:56.006Z,7.25
2022-10-23T02:46:29.916Z,5.15
2022-10-23T02:49:05.435Z,8.32
2022-10-23T02:51:42.344Z,5.60
2022-10-23T02:54:18.884Z,5.32
2022-10-23T02:56:54.330Z,6.05
2022-10-23T02:59:28.588Z,8.20
2022-10-23T03:02:03.718Z,8.13
2022-10-23T03:04:32.836Z,4.03
2022-10-23T03:07:00.751Z,5.82
2022-10-23T03:09:28.397Z,9.40
2022-10-23T03:11:56.043Z,6.55
2022-10-23T03:14:23.658Z,6.03
2022-10-23T03:16:51.511Z,5.07
2022-10-23T03:19:20.490Z,8.10
2022-10-23T03:21:48.184Z,7.47
2022-10-23T03:24:15.812Z,5.78
2022-10-23T03:26:43.512Z,13.63
2022-10-23T03:29:11.193Z,7.60
2022-10-23T03:31:38.835Z,7.60
2022-10-23T03:34:11.027Z,5.13
2022-10-23T03:36:40.055Z,3.75
2022-10-23T03:39:07.633Z,4.70
2022-10-23T03:41:35.305Z,7.28
2022-10-23T03:46:35.430Z,8.73
2022-10-23T03:49:03.115Z,6.15
2022-10-23T03:51:30.842Z,5.18
2022-10-23T03:53:59.875Z,3.63
2022-10-23T03:56:27.616Z,6.53
2022-10-23T03:58:55.204Z,8.98
2022-10-23T04:01:27.223Z,6.50
2022-10-23T04:03:55.054Z,7.25
2022-10-23T04:06:22.637Z,4.60
2022-10-23T04:08:50.373Z,5.45
2022-10-23T04:11:19.384Z,4.28
2022-10-23T04:13:47.328Z,5.80
2022-10-23T04:16:15.147Z,7.22
2022-10-23T04:18:43.418Z,6.25
2022-10-23T04:21:14.055Z,4.90
2022-10-23T04:23:41.660Z,6.03
2022-10-23T04:26:09.395Z,6.20
2022-10-23T04:28:38.466Z,5.60
2022-10-23T04:31:06.255Z,4.80
2022-10-23T04:33:33.844Z,6.78
2022-10-23T04:36:01.515Z,6.40
2022-10-23T04:38:29.191Z,5.80
2022-10-23T04:40:56.843Z,12.45
2022-10-23T04:43:24.567Z,11.38
2022-10-23T04:45:53.552Z,8.10
2022-10-23T04:48:24.397Z,12.00
2022-10-23T04:50:59.234Z,13.80
2022-10-23T04:53:27.515Z,16.58
2022-10-23T04:55:56.579Z,7.38
2022-10-23T04:58:24.557Z,10.38
2022-10-23T05:00:53.942Z,6.60
2022-10-23T05:03:23.504Z,15.73
2022-10-23T05:05:53.774Z,11.43
2022-10-23T05:08:21.495Z,8.85
2022-10-23T05:10:49.636Z,9.40
2022-10-23T05:13:19.655Z,8.30
2022-10-23T05:15:53.095Z,10.63
2022-10-23T05:18:25.432Z,10.82
2022-10-23T05:20:56.587Z,6.03
2022-10-23T05:23:26.204Z,9.30
2022-10-23T05:25:53.986Z,5.40
2022-10-23T05:28:21.780Z,5.88
2022-10-23T05:30:50.267Z,9.52
2022-10-23T05:33:19.345Z,11.90
2022-10-23T05:35:47.078Z,6.68
2022-10-23T05:38:15.759Z,9.15
2022-10-23T05:40:43.554Z,7.03
2022-10-23T05:43:11.172Z,7.05
2022-10-23T05:45:38.875Z,7.78
2022-10-23T05:48:11.368Z,6.25
2022-10-23T05:50:45.923Z,10.25
2022-10-23T05:53:13.785Z,5.03
2022-10-23T05:55:41.568Z,7.13
2022-10-23T05:58:09.286Z,6.75
2022-10-23T06:00:36.968Z,10.55
2022-10-23T06:03:04.802Z,9.38
2022-10-23T06:05:32.554Z,6.97
2022-10-23T06:08:01.611Z,3.67
2022-10-23T06:10:29.483Z,6.75
2022-10-23T06:12:57.132Z,9.25
2022-10-23T06:15:24.838Z,9.32
2022-10-23T06:17:52.480Z,9.80
2022-10-23T06:20:20.071Z,7.43
2022-10-23T06:22:47.658Z,8.05
2022-10-23T06:25:16.749Z,7.20
2022-10-23T06:27:44.422Z,6.22
2022-10-23T06:30:13.360Z,6.07
2022-10-23T06:32:41.243Z,5.60
2022-10-23T06:35:10.135Z,7.53
2022-10-23T06:37:37.792Z,8.45
2022-10-23T06:40:08.616Z,7.85
2022-10-23T06:42:37.594Z,6.40
2022-10-23T06:45:06.522Z,6.03
2022-10-23T06:47:34.961Z,11.73
2022-10-23T06:50:02.667Z,7.60
2022-10-23T06:52:46.409Z,8.70
2022-10-23T06:55:14.990Z,13.15
2022-10-23T06:57:45.068Z,10.50
2022-10-23T07:00:14.364Z,8.95
2022-10-23T07:02:42.443Z,8.27
2022-10-23T07:05:13.516Z,9.27
2022-10-23T07:07:43.073Z,11.02
2022-10-23T07:10:11.070Z,13.38
2022-10-23T07:12:41.719Z,9.57
2022-10-23T07:15:11.345Z,9.80
2022-10-23T07:17:39.074Z,10.52
2022-10-23T07:20:07.239Z,41.22
2022-10-23T07:22:35.202Z,8.48
2022-10-23T07:25:03.277Z,8.18
2022-10-23T07:27:30.984Z,9.48
2022-10-23T07:29:58.550Z,9.38
2022-10-23T07:32:28.950Z,5.95
2022-10-23T07:34:56.634Z,8.85
2022-10-23T07:37:24.244Z,9.88
2022-10-23T07:39:51.927Z,5.75
2022-10-23T07:42:19.627Z,10.50
2022-10-23T07:44:47.302Z,7.88
2022-10-23T07:47:14.968Z,7.47
2022-10-23T07:49:43.966Z,9.05
2022-10-23T07:52:12.189Z,9.98
2022-10-23T07:54:39.840Z,8.07
2022-10-23T07:57:09.355Z,8.65
2022-10-23T07:59:38.098Z,12.15
2022-10-23T08:02:06.629Z,5.43
2022-10-23T08:04:36.344Z,7.03
2022-10-23T08:07:05.710Z,8.45
2022-10-23T08:09:34.435Z,6.03
2022-10-23T08:12:02.217Z,6.15
2022-10-23T08:14:30.892Z,6.32
2022-10-23T08:16:58.651Z,8.88
2022-10-23T08:19:26.444Z,7.05
2022-10-23T08:21:57.210Z,10.07
2022-10-23T08:24:48.701Z,11.32
2022-10-23T08:27:23.733Z,9.38
2022-10-23T08:29:51.558Z,7.32
2022-10-23T08:32:20.809Z,7.65
2022-10-23T08:34:50.729Z,6.85
2022-10-23T08:37:18.741Z,7.88
2022-10-23T08:39:53.341Z,5.18
2022-10-23T08:42:24.073Z,5.30
2022-10-23T08:45:03.484Z,6.85
2022-10-23T08:47:37.533Z,3.97
2022-10-23T08:50:11.970Z,5.85
2022-10-23T08:52:47.776Z,7.93
2022-10-23T08:55:22.994Z,4.63
2022-10-23T08:57:59.453Z,5.50
2022-10-23T09:00:27.504Z,7.57
2022-10-23T09:02:55.546Z,6.32
2022-10-23T09:05:31.769Z,8.48
2022-10-23T09:08:17.560Z,6.38
2022-10-23T09:11:01.562Z,5.55
2022-10-23T09:13:55.464Z,4.80
2022-10-23T09:16:32.153Z,13.30
2022-10-23T09:18:59.985Z,4.60
2022-10-23T09:21:29.074Z,4.30
2022-10-23T09:23:56.823Z,3.65
2022-10-23T09:26:25.828Z,3.15
2022-10-23T09:28:58.124Z,4.80
2022-10-23T09:33:57.438Z,3.42
2022-10-23T09:36:29.009Z,6.05
2022-10-23T09:38:58.791Z,5.77
2022-10-23T09:41:30.957Z,3.10
2022-10-23T09:44:03.433Z,8.35
2022-10-23T09:49:21.489Z,2.88
2022-10-23T09:52:02.879Z,4.00
2022-10-23T09:54:36.660Z,3.67
2022-10-23T09:57:20.636Z,7.10
2022-10-23T09:59:53.189Z,2.38
2022-10-23T10:02:28.031Z,4.43
2022-10-23T10:04:55.899Z,2.22
2022-10-23T10:07:30.174Z,3.38
2022-10-23T10:09:59.931Z,3.92
2022-10-23T10:12:43.926Z,3.95
2022-10-23T10:15:18.748Z,4.32
2022-10-23T10:17:58.058Z,4.72
2022-10-23T10:20:52.752Z,4.50
2022-10-23T10:23:30.936Z,11.77
2022-10-23T10:26:05.488Z,5.68
2022-10-23T10:28:50.079Z,8.27
2022-10-23T10:31:24.573Z,6.78
2022-10-23T10:34:03.252Z,4.05
2022-10-23T10:36:44.933Z,4.68
2022-10-23T10:39:19.113Z,4.10
2022-10-23T10:42:10.944Z,2.75
2022-10-23T10:44:54.450Z,3.13
2022-10-23T10:47:29.810Z,4.30
2022-10-23T10:50:09.004Z,6.07
2022-10-23T10:52:49.248Z,6.05
2022-10-23T10:55:24.717Z,6.57
2022-10-23T10:57:59.273Z,3.00
2022-10-23T11:00:32.131Z,4.35
2022-10-23T11:03:07.331Z,4.22
2022-10-23T11:05:39.368Z,1.83
2022-10-23T11:08:13.642Z,3.22
2022-10-23T11:10:45.396Z,3.20
2022-10-23T11:13:25.517Z,2.20
2022-10-23T11:15:59.009Z,3.22
2022-10-23T11:18:30.305Z,6.38
2022-10-23T11:21:08.685Z,6.07
2022-10-23T11:23:49.258Z,8.77
2022-10-23T11:26:29.964Z,4.80
2022-10-23T11:29:18.828Z,3.63
2022-10-23T11:32:00.840Z,8.63
2022-10-23T11:34:45.780Z,5.60
2022-10-23T11:37:18.203Z,4.15
2022-10-23T11:40:00.869Z,3.50
2022-10-23T11:42:35.027Z,2.30
2022-10-23T11:45:02.767Z,1.42
2022-10-23T11:47:39.766Z,3.53
2022-10-23T11:50:30.822Z,3.72
2022-10-23T11:53:14.814Z,3.53
2022-10-23T11:55:58.143Z,4.05
2022-10-23T11:58:31.668Z,3.45
2022-10-23T12:01:04.672Z,3.75
2022-10-23T12:03:42.646Z,4.45
2022-10-23T12:06:22.419Z,2.00
2022-10-23T12:08:54.908Z,2.53
2022-10-23T12:11:29.330Z,2.95
2022-10-23T12:13:57.010Z,1.80
2022-10-23T12:16:35.777Z,3.42
2022-10-23T12:19:18.738Z,2.13
2022-10-23T12:21:47.189Z,2.53
2022-10-23T12:24:34.731Z,3.40
2022-10-23T12:27:14.426Z,3.00
2022-10-23T12:30:21.382Z,4.88
2022-10-23T12:33:06.399Z,5.93
2022-10-23T12:36:12.471Z,3.65
2022-10-23T12:38:45.810Z,5.00
2022-10-23T12:41:17.226Z,1.52
2022-10-23T12:43:51.307Z,4.70
2022-10-23T12:46:38.986Z,3.05
2022-10-23T12:49:15.843Z,2.70
2022-10-23T12:51:45.203Z,1.67
2022-10-23T12:54:17.370Z,1.90
2022-10-23T12:59:17.379Z,2.38
2022-10-23T13:01:47.992Z,3.95
2022-10-23T13:04:27.609Z,3.42
2022-10-23T13:06:58.860Z,2.28
2022-10-23T13:09:30.822Z,3.87
2022-10-23T13:12:00.694Z,4.95
2022-10-23T13:14:35.144Z,5.72
2022-10-23T13:17:04.707Z,2.45
2022-10-23T13:19:32.849Z,2.13
2022-10-23T13:22:03.951Z,4.00
2022-10-23T13:24:32.653Z,4.60
2022-10-23T13:27:00.299Z,4.00
2022-10-23T13:29:29.897Z,3.85
2022-10-23T13:31:57.904Z,7.10
2022-10-23T13:34:27.985Z,3.38
2022-10-23T13:37:03.587Z,4.35
2022-10-23T13:39:33.121Z,9.13
2022-10-23T13:42:07.719Z,4.95
2022-10-23T13:44:37.331Z,6.32
2022-10-23T13:47:11.489Z,12.05
2022-10-23T13:49:39.180Z,6.88
2022-10-23T13:52:12.072Z,4.90
2022-10-23T13:54:39.638Z,4.00
2022-10-23T13:57:10.640Z,3.90
2022-10-23T13:59:38.231Z,5.93
2022-10-23T14:02:19.318Z,5.63
2022-10-23T14:04:47.329Z,21.10
2022-10-23T14:07:16.554Z,9.00
2022-10-23T14:09:46.255Z,10.20
2022-10-23T14:12:13.891Z,14.80
2022-10-23T14:14:41.746Z,5.65
2022-10-23T14:17:09.502Z,4.78
2022-10-23T14:22:18.339Z,20.65
2022-10-23T14:24:46.046Z,6.43
2022-10-23T14:27:13.639Z,6.60
2022-10-23T14:29:44.398Z,8.45
2022-10-23T14:32:15.826Z,5.15
2022-10-23T14:34:47.357Z,4.90
2022-10-23T14:37:17.201Z,5.97
2022-10-23T14:39:49.622Z,5.60
2022-10-23T14:42:18.289Z,5.47
2022-10-23T14:44:46.115Z,3.95
2022-10-23T14:47:18.909Z,4.28
2022-10-23T14:49:50.965Z,3.35
2022-10-23T14:52:20.151Z,8.82
2022-10-23T14:54:47.872Z,9.20
2022-10-23T14:57:17.879Z,7.53
2022-10-23T14:59:47.207Z,6.15
2022-10-23T15:02:15.317Z,6.57
2022-10-23T15:04:45.415Z,10.30
2022-10-23T15:07:26.216Z,6.25
2022-10-23T15:09:55.471Z,5.72
2022-10-23T15:12:25.243Z,5.25
2022-10-23T15:14:53.003Z,6.70
2022-10-23T15:17:22.792Z,4.72
2022-10-23T15:19:50.606Z,8.32
2022-10-23T15:22:19.506Z,4.47
2022-10-23T15:24:51.562Z,4.95
2022-10-23T15:27:19.602Z,3.72
2022-10-23T15:29:47.312Z,8.38
2022-10-23T15:32:15.042Z,8.75
2022-10-23T15:34:49.801Z,5.45
2022-10-23T15:37:19.581Z,3.65
2022-10-23T15:39:48.854Z,7.68
2022-10-23T15:42:18.714Z,6.10
2022-10-23T15:44:46.954Z,11.23
2022-10-23T15:47:16.233Z,8.05
2022-10-23T15:49:46.486Z,5.05
2022-10-23T15:52:17.915Z,7.22
2022-10-23T15:54:51.027Z,8.90
2022-10-23T15:57:18.799Z,7.35
2022-10-23T15:59:47.883Z,3.30
2022-10-23T16:02:38.112Z,4.25
2022-10-23T16:05:06.476Z,4.53
2022-10-23T16:07:34.234Z,5.35
2022-10-23T16:10:06.731Z,5.18
2022-10-23T16:12:34.437Z,4.80
2022-10-23T16:15:02.107Z,2.80
2022-10-23T16:17:33.027Z,7.85
2022-10-23T16:20:00.657Z,5.43
2022-10-23T16:22:28.356Z,5.00
2022-10-23T16:24:56.174Z,3.58
2022-10-23T16:27:25.392Z,5.82
2022-10-23T16:29:53.329Z,8.45
2022-10-23T16:32:20.984Z,5.40
2022-10-23T16:34:48.638Z,4.47
2022-10-23T16:37:18.311Z,3.70
2022-10-23T16:39:55.217Z,6.72
2022-10-23T16:42:23.566Z,8.88
2022-10-23T16:44:52.688Z,4.03
2022-10-23T16:47:20.474Z,3.17
2022-10-23T16:49:49.784Z,4.38
2022-10-23T16:52:17.423Z,11.60
2022-10-23T16:54:47.861Z,14.75
2022-10-23T16:57:31.941Z,17.52
2022-10-23T17:00:01.100Z,9.63
2022-10-23T17:02:32.838Z,9.45
2022-10-23T17:05:00.829Z,10.77
2022-10-23T17:07:28.702Z,7.28
2022-10-23T17:09:57.835Z,7.25
2022-10-23T17:12:25.581Z,4.38
2022-10-23T17:14:56.313Z,6.45
2022-10-23T17:17:31.440Z,5.97
2022-10-23T17:20:08.546Z,8.48
2022-10-23T17:22:36.568Z,11.98
2022-10-23T17:25:04.522Z,7.60
2022-10-23T17:27:42.844Z,9.50
2022-10-23T17:30:12.937Z,6.45
2022-10-23T17:32:42.315Z,11.60
2022-10-23T17:35:13.463Z,5.13
2022-10-23T17:37:41.187Z,6.18
2022-10-23T17:40:09.664Z,5.00
2022-10-23T17:42:37.331Z,6.45
2022-10-23T17:45:05.467Z,5.50
2022-10-23T17:47:33.121Z,6.88
2022-10-23T17:50:02.160Z,6.72
2022-10-23T17:52:30.260Z,8.82
2022-10-23T17:54:59.951Z,42.08
2022-10-23T17:57:27.811Z,52.42
2022-10-23T17:59:55.599Z,14.65
2022-10-23T18:02:23.292Z,8.48
2022-10-23T18:04:50.968Z,5.60
2022-10-23T18:07:20.083Z,15.50
2022-10-23T18:09:49.606Z,7.20
2022-10-23T18:12:17.176Z,6.13
2022-10-23T18:14:44.902Z,9.60
2022-10-23T18:17:14.388Z,33.33
2022-10-23T18:19:44.509Z,8.80
2022-10-23T18:22:12.211Z,8.90
2022-10-23T18:24:41.410Z,12.18
2022-10-23T18:27:12.870Z,10.20
2022-10-23T18:29:43.383Z,13.40
2022-10-23T18:32:11.163Z,9.10
2022-10-23T18:34:38.776Z,8.15
2022-10-23T18:37:06.408Z,11.63
2022-10-23T18:39:34.232Z,13.70
2022-10-23T18:42:04.776Z,8.85
2022-10-23T18:44:32.937Z,35.30
2022-10-23T18:47:01.168Z,27.40
2022-10-23T18:49:29.558Z,18.05
2022-10-23T18:51:58.261Z,15.80
2022-10-23T18:54:25.905Z,22.17
2022-10-23T18:56:56.198Z,31.73
2022-10-23T18:59:25.313Z,29.30
2022-10-23T19:01:56.472Z,14.15
2022-10-23T19:04:26.037Z,13.90
2022-10-23T19:07:01.639Z,18.20
2022-10-23T19:09:29.485Z,30.15
2022-10-23T19:11:57.174Z,42.70
2022-10-23T19:14:28.984Z,20.83
2022-10-23T19:17:07.822Z,13.07
2022-10-23T19:19:46.021Z,17.17
2022-10-23T19:22:16.225Z,24.58
2022-10-23T19:24:50.630Z,36.58
2022-10-23T19:27:19.325Z,14.38
2022-10-23T19:29:51.736Z,9.88
2022-10-23T19:34:49.979Z,11.02
2022-10-23T19:37:17.813Z,8.55
2022-10-23T19:39:47.637Z,9.15
2022-10-23T19:42:15.376Z,11.73
2022-10-23T19:44:43.092Z,10.32
2022-10-23T19:47:12.276Z,7.60
2022-10-23T19:49:42.501Z,13.38
2022-10-23T19:52:10.263Z,13.73
2022-10-23T19:54:40.200Z,10.05
2022-10-23T19:57:07.959Z,7.82
2022-10-23T19:59:35.734Z,11.10
2022-10-23T20:02:03.513Z,21.38
2022-10-23T20:04:32.677Z,31.90
2022-10-23T20:07:01.750Z,14.13
2022-10-23T20:09:29.498Z,13.70
2022-10-23T20:11:57.214Z,19.10
2022-10-23T20:14:24.942Z,21.00
2022-10-23T20:16:55.938Z,30.33
2022-10-23T20:19:23.947Z,25.00
2022-10-23T20:21:52.993Z,22.55
2022-10-23T20:24:21.941Z,18.02
2022-10-23T20:26:50.773Z,14.63
2022-10-23T20:29:18.777Z,15.07
2022-10-23T20:31:46.512Z,11.85
2022-10-23T20:34:14.298Z,13.52
2022-10-23T20:36:46.400Z,9.50
2022-10-23T20:39:17.826Z,10.82
2022-10-23T20:41:45.638Z,8.52
2022-10-23T20:46:48.394Z,13.07
2022-10-23T20:49:16.756Z,9.93
2022-10-23T20:51:45.327Z,9.77
2022-10-23T20:54:12.993Z,19.33
2022-10-23T20:56:41.987Z,13.50
2022-10-23T20:59:13.548Z,8.40
2022-10-23T21:01:42.495Z,18.70
2022-10-23T21:04:12.739Z,11.55
2022-10-23T21:07:08.273Z,10.10
2022-10-23T21:09:32.012Z,11.65
2022-10-23T21:12:01.081Z,12.30
2022-10-23T21:14:28.695Z,12.98
2022-10-23T21:16:56.358Z,12.73
2022-10-23T21:19:23.989Z,16.63
2022-10-23T21:21:51.646Z,13.45
2022-10-23T21:24:19.320Z,11.00
2022-10-23T21:26:47.082Z,16.88
2022-10-23T21:29:19.071Z,11.93
2022-10-23T21:31:52.754Z,11.43
2022-10-23T21:34:20.369Z,17.90
2022-10-23T21:37:11.528Z,11.15
2022-10-23T21:39:35.610Z,12.07
2022-10-23T21:42:03.260Z,14.73
2022-10-23T21:44:32.276Z,10.23
2022-10-23T21:46:59.908Z,11.65
2022-10-23T21:49:27.646Z,11.50
2022-10-23T21:51:55.807Z,12.15
2022-10-23T21:54:23.915Z,14.00
2022-10-23T21:56:54.165Z,21.35
2022-10-23T21:59:25.227Z,14.15
2022-10-23T22:04:23.761Z,12.90
2022-10-23T22:06:51.463Z,17.85
2022-10-23T22:09:21.059Z,11.48
2022-10-23T22:11:50.186Z,7.38
2022-10-23T22:14:18.080Z,9.07
2022-10-23T22:16:45.692Z,11.10
2022-10-23T22:19:15.675Z,16.08
2022-10-23T22:21:43.850Z,11.80
2022-10-23T22:24:11.505Z,9.88
2022-10-23T22:26:41.052Z,13.35
2022-10-23T22:29:10.865Z,8.25
2022-10-23T22:31:39.710Z,8.68
2022-10-23T22:34:18.976Z,14.98
2022-10-23T22:36:58.366Z,8.18
2022-10-23T22:39:25.956Z,11.05
2022-10-23T22:41:53.529Z,10.85
2022-10-23T22:44:21.164Z,8.95
2022-10-23T22:46:48.813Z,13.95
2022-10-23T22:49:16.502Z,10.90
2022-10-23T22:51:44.171Z,10.13
2022-10-23T22:54:13.120Z,12.70
2022-10-23T22:56:41.735Z,9.85
2022-10-23T22:59:09.860Z,12.68
2022-10-23T23:01:40.234Z,11.10
2022-10-23T23:04:26.045Z,12.38
2022-10-23T23:06:56.015Z,13.68
2022-10-23T23:09:25.107Z,5.78
2022-10-23T23:11:52.930Z,10.32
2022-10-23T23:14:23.677Z,12.43
2022-10-23T23:16:52.998Z,9.80
2022-10-23T23:19:22.428Z,10.07
2022-10-23T23:21:50.052Z,11.95
2022-10-23T23:24:17.685Z,8.63
2022-10-23T23:26:47.000Z,17.40
2022-10-23T23:29:14.645Z,17.58
2022-10-23T23:31:42.267Z,13.10
2022-10-23T23:34:09.999Z,17.73
2022-10-23T23:36:37.628Z,9.70
2022-10-23T23:39:05.420Z,7.22
2022-10-23T23:41:33.104Z,11.25
2022-10-23T23:44:02.159Z,11.18
2022-10-23T23:46:29.905Z,11.70
2022-10-23T23:48:57.542Z,10.02
2022-10-23T23:51:26.375Z,8.10
2022-10-23T23:53:54.638Z,15.40
2022-10-23T23:56:22.569Z,8.65
2022-10-23T23:58:50.277Z,10.75
